sensor_id;sensor_type;location;lat;lon;timestamp;P1;durP1;ratioP1;P2;durP2;ratioP2
68076;SDS011;54866;53.458;14.540;2023-05-07T00:00:21;19.30;;;13.80;;
68076;SDS011;54866;53.458;14.540;2023-05-07T00:02:52;24.30;;;17.80;;
68076;SDS011;54866;53.458;14.540;2023-05-07T00:05:21;20.60;;;15.70;;
68076;SDS011;54866;53.458;14.540;2023-05-07T00:07:51;22.30;;;15.90;;
68076;SDS011;54866;53.458;14.540;2023-05-07T00:10:20;22.60;;;16.70;;
68076;SDS011;54866;53.458;14.540;2023-05-07T00:12:50;18.80;;;14.10;;
68076;SDS011;54866;53.458;14.540;2023-05-07T00:15:21;19.00;;;13.10;;
68076;SDS011;54866;53.458;14.540;2023-05-07T00:17:50;16.20;;;11.80;;
68076;SDS011;54866;53.458;14.540;2023-05-07T00:20:20;12.80;;;8.90;;
68076;SDS011;54866;53.458;14.540;2023-05-07T00:22:50;11.50;;;8.80;;
68076;SDS011;54866;53.458;14.540;2023-05-07T00:25:19;9.30;;;7.00;;
68076;SDS011;54866;53.458;14.540;2023-05-07T00:27:49;9.60;;;6.80;;
68076;SDS011;54866;53.458;14.540;2023-05-07T00:30:19;8.40;;;6.00;;
68076;SDS011;54866;53.458;14.540;2023-05-07T00:32:48;10.00;;;7.60;;
68076;SDS011;54866;53.458;14.540;2023-05-07T00:35:18;8.20;;;5.80;;
68076;SDS011;54866;53.458;14.540;2023-05-07T00:37:48;8.20;;;6.80;;
68076;SDS011;54866;53.458;14.540;2023-05-07T00:40:17;8.30;;;6.30;;
68076;SDS011;54866;53.458;14.540;2023-05-07T00:42:47;8.80;;;6.00;;
68076;SDS011;54866;53.458;14.540;2023-05-07T00:45:16;9.30;;;5.80;;
68076;SDS011;54866;53.458;14.540;2023-05-07T00:47:46;9.50;;;6.00;;
68076;SDS011;54866;53.458;14.540;2023-05-07T00:50:15;9.70;;;7.20;;
68076;SDS011;54866;53.458;14.540;2023-05-07T00:52:45;9.00;;;6.80;;
68076;SDS011;54866;53.458;14.540;2023-05-07T00:55:15;9.10;;;6.50;;
68076;SDS011;54866;53.458;14.540;2023-05-07T00:57:45;8.10;;;5.80;;
68076;SDS011;54866;53.458;14.540;2023-05-07T01:00:15;7.70;;;5.70;;
68076;SDS011;54866;53.458;14.540;2023-05-07T01:02:45;9.70;;;5.70;;
68076;SDS011;54866;53.458;14.540;2023-05-07T01:05:15;8.70;;;6.20;;
68076;SDS011;54866;53.458;14.540;2023-05-07T01:07:46;10.50;;;5.40;;
68076;SDS011;54866;53.458;14.540;2023-05-07T01:10:17;8.30;;;6.10;;
68076;SDS011;54866;53.458;14.540;2023-05-07T01:12:47;6.30;;;4.50;;
68076;SDS011;54866;53.458;14.540;2023-05-07T01:15:18;9.00;;;7.00;;
68076;SDS011;54866;53.458;14.540;2023-05-07T01:17:47;8.80;;;7.00;;
68076;SDS011;54866;53.458;14.540;2023-05-07T01:20:17;10.00;;;6.30;;
68076;SDS011;54866;53.458;14.540;2023-05-07T01:22:47;9.10;;;6.70;;
68076;SDS011;54866;53.458;14.540;2023-05-07T01:25:17;7.70;;;6.20;;
68076;SDS011;54866;53.458;14.540;2023-05-07T01:27:47;8.10;;;6.00;;
68076;SDS011;54866;53.458;14.540;2023-05-07T01:30:17;9.30;;;6.10;;
68076;SDS011;54866;53.458;14.540;2023-05-07T01:32:50;8.70;;;6.20;;
68076;SDS011;54866;53.458;14.540;2023-05-07T01:35:24;8.40;;;5.50;;
68076;SDS011;54866;53.458;14.540;2023-05-07T01:37:58;9.20;;;6.40;;
68076;SDS011;54866;53.458;14.540;2023-05-07T01:40:30;8.00;;;5.40;;
68076;SDS011;54866;53.458;14.540;2023-05-07T01:43:01;8.00;;;5.90;;
68076;SDS011;54866;53.458;14.540;2023-05-07T01:45:31;6.80;;;5.50;;
68076;SDS011;54866;53.458;14.540;2023-05-07T01:48:02;8.30;;;6.30;;
68076;SDS011;54866;53.458;14.540;2023-05-07T01:50:33;10.20;;;6.80;;
68076;SDS011;54866;53.458;14.540;2023-05-07T01:53:04;7.60;;;6.00;;
68076;SDS011;54866;53.458;14.540;2023-05-07T01:55:34;7.70;;;5.60;;
68076;SDS011;54866;53.458;14.540;2023-05-07T01:58:04;8.50;;;5.90;;
68076;SDS011;54866;53.458;14.540;2023-05-07T02:00:33;7.50;;;5.80;;
68076;SDS011;54866;53.458;14.540;2023-05-07T02:03:03;8.40;;;6.60;;
68076;SDS011;54866;53.458;14.540;2023-05-07T02:05:33;8.30;;;6.40;;
68076;SDS011;54866;53.458;14.540;2023-05-07T02:08:02;10.10;;;7.20;;
68076;SDS011;54866;53.458;14.540;2023-05-07T02:10:32;8.70;;;6.00;;
68076;SDS011;54866;53.458;14.540;2023-05-07T02:13:02;8.70;;;6.40;;
68076;SDS011;54866;53.458;14.540;2023-05-07T02:15:32;9.60;;;7.10;;
68076;SDS011;54866;53.458;14.540;2023-05-07T02:18:02;10.30;;;7.10;;
68076;SDS011;54866;53.458;14.540;2023-05-07T02:20:33;9.50;;;6.40;;
68076;SDS011;54866;53.458;14.540;2023-05-07T02:23:03;8.60;;;5.80;;
68076;SDS011;54866;53.458;14.540;2023-05-07T02:25:32;10.00;;;6.40;;
68076;SDS011;54866;53.458;14.540;2023-05-07T02:28:02;10.10;;;7.70;;
68076;SDS011;54866;53.458;14.540;2023-05-07T02:30:32;9.80;;;7.60;;
68076;SDS011;54866;53.458;14.540;2023-05-07T02:33:01;11.10;;;7.70;;
68076;SDS011;54866;53.458;14.540;2023-05-07T02:35:31;10.90;;;7.80;;
68076;SDS011;54866;53.458;14.540;2023-05-07T02:38:00;11.30;;;8.10;;
68076;SDS011;54866;53.458;14.540;2023-05-07T02:40:30;9.00;;;6.60;;
68076;SDS011;54866;53.458;14.540;2023-05-07T02:43:05;11.30;;;7.90;;
68076;SDS011;54866;53.458;14.540;2023-05-07T02:45:34;10.60;;;7.90;;
68076;SDS011;54866;53.458;14.540;2023-05-07T02:48:04;9.80;;;7.30;;
68076;SDS011;54866;53.458;14.540;2023-05-07T02:50:34;11.80;;;7.30;;
68076;SDS011;54866;53.458;14.540;2023-05-07T02:53:03;10.10;;;7.00;;
68076;SDS011;54866;53.458;14.540;2023-05-07T02:55:33;8.30;;;7.30;;
68076;SDS011;54866;53.458;14.540;2023-05-07T02:58:02;9.30;;;6.60;;
68076;SDS011;54866;53.458;14.540;2023-05-07T03:00:32;9.30;;;8.10;;
68076;SDS011;54866;53.458;14.540;2023-05-07T03:03:02;9.70;;;6.60;;
68076;SDS011;54866;53.458;14.540;2023-05-07T03:05:32;10.20;;;6.60;;
68076;SDS011;54866;53.458;14.540;2023-05-07T03:08:01;10.70;;;7.30;;
68076;SDS011;54866;53.458;14.540;2023-05-07T03:10:31;7.50;;;6.60;;
68076;SDS011;54866;53.458;14.540;2023-05-07T03:13:01;11.50;;;8.40;;
68076;SDS011;54866;53.458;14.540;2023-05-07T03:15:30;9.70;;;5.90;;
68076;SDS011;54866;53.458;14.540;2023-05-07T03:18:00;9.10;;;7.50;;
68076;SDS011;54866;53.458;14.540;2023-05-07T03:20:29;9.10;;;7.50;;
68076;SDS011;54866;53.458;14.540;2023-05-07T03:22:59;11.70;;;7.80;;
68076;SDS011;54866;53.458;14.540;2023-05-07T03:25:28;9.10;;;7.20;;
68076;SDS011;54866;53.458;14.540;2023-05-07T03:27:58;11.20;;;7.90;;
68076;SDS011;54866;53.458;14.540;2023-05-07T03:30:27;9.10;;;7.10;;
68076;SDS011;54866;53.458;14.540;2023-05-07T03:32:57;11.60;;;7.50;;
68076;SDS011;54866;53.458;14.540;2023-05-07T03:35:26;9.80;;;7.10;;
68076;SDS011;54866;53.458;14.540;2023-05-07T03:37:56;10.80;;;6.50;;
68076;SDS011;54866;53.458;14.540;2023-05-07T03:40:25;9.00;;;6.30;;
68076;SDS011;54866;53.458;14.540;2023-05-07T03:42:55;9.80;;;6.60;;
68076;SDS011;54866;53.458;14.540;2023-05-07T03:45:25;8.20;;;5.70;;
68076;SDS011;54866;53.458;14.540;2023-05-07T03:47:54;7.60;;;5.40;;
68076;SDS011;54866;53.458;14.540;2023-05-07T03:50:24;8.10;;;6.20;;
68076;SDS011;54866;53.458;14.540;2023-05-07T03:52:53;8.50;;;5.70;;
68076;SDS011;54866;53.458;14.540;2023-05-07T03:55:23;10.40;;;6.30;;
68076;SDS011;54866;53.458;14.540;2023-05-07T03:57:53;8.50;;;5.70;;
68076;SDS011;54866;53.458;14.540;2023-05-07T04:00:23;8.40;;;6.00;;
68076;SDS011;54866;53.458;14.540;2023-05-07T04:02:52;8.20;;;6.30;;
68076;SDS011;54866;53.458;14.540;2023-05-07T04:05:22;10.00;;;5.50;;
68076;SDS011;54866;53.458;14.540;2023-05-07T04:07:53;7.30;;;5.60;;
68076;SDS011;54866;53.458;14.540;2023-05-07T04:10:22;12.50;;;6.10;;
68076;SDS011;54866;53.458;14.540;2023-05-07T04:12:52;8.50;;;5.80;;
68076;SDS011;54866;53.458;14.540;2023-05-07T04:15:22;7.30;;;4.80;;
68076;SDS011;54866;53.458;14.540;2023-05-07T04:17:52;9.20;;;6.30;;
68076;SDS011;54866;53.458;14.540;2023-05-07T04:20:21;9.30;;;6.30;;
68076;SDS011;54866;53.458;14.540;2023-05-07T04:22:51;7.90;;;5.50;;
68076;SDS011;54866;53.458;14.540;2023-05-07T04:25:21;9.30;;;6.30;;
68076;SDS011;54866;53.458;14.540;2023-05-07T04:27:52;11.00;;;7.30;;
68076;SDS011;54866;53.458;14.540;2023-05-07T04:30:22;7.60;;;5.70;;
68076;SDS011;54866;53.458;14.540;2023-05-07T04:32:52;6.40;;;5.10;;
68076;SDS011;54866;53.458;14.540;2023-05-07T04:35:22;8.70;;;6.10;;
68076;SDS011;54866;53.458;14.540;2023-05-07T04:37:52;10.10;;;6.00;;
68076;SDS011;54866;53.458;14.540;2023-05-07T04:40:21;8.50;;;6.40;;
68076;SDS011;54866;53.458;14.540;2023-05-07T04:42:51;8.00;;;5.70;;
68076;SDS011;54866;53.458;14.540;2023-05-07T04:45:20;7.80;;;5.90;;
68076;SDS011;54866;53.458;14.540;2023-05-07T04:47:50;7.00;;;5.20;;
68076;SDS011;54866;53.458;14.540;2023-05-07T04:50:20;9.90;;;6.20;;
68076;SDS011;54866;53.458;14.540;2023-05-07T04:52:50;8.50;;;6.00;;
68076;SDS011;54866;53.458;14.540;2023-05-07T04:55:20;8.40;;;5.90;;
68076;SDS011;54866;53.458;14.540;2023-05-07T04:57:50;9.50;;;6.50;;
68076;SDS011;54866;53.458;14.540;2023-05-07T05:00:19;7.30;;;5.70;;
68076;SDS011;54866;53.458;14.540;2023-05-07T05:02:49;7.10;;;5.10;;
68076;SDS011;54866;53.458;14.540;2023-05-07T05:05:19;8.90;;;5.60;;
68076;SDS011;54866;53.458;14.540;2023-05-07T05:07:49;9.20;;;6.10;;
68076;SDS011;54866;53.458;14.540;2023-05-07T05:10:19;10.00;;;6.50;;
68076;SDS011;54866;53.458;14.540;2023-05-07T05:12:49;10.00;;;6.70;;
68076;SDS011;54866;53.458;14.540;2023-05-07T05:15:19;7.20;;;5.10;;
68076;SDS011;54866;53.458;14.540;2023-05-07T05:17:48;7.80;;;6.10;;
68076;SDS011;54866;53.458;14.540;2023-05-07T05:20:18;8.80;;;6.20;;
68076;SDS011;54866;53.458;14.540;2023-05-07T05:22:47;7.90;;;5.90;;
68076;SDS011;54866;53.458;14.540;2023-05-07T05:25:17;7.70;;;5.80;;
68076;SDS011;54866;53.458;14.540;2023-05-07T05:27:46;11.20;;;5.50;;
68076;SDS011;54866;53.458;14.540;2023-05-07T05:30:16;7.30;;;5.30;;
68076;SDS011;54866;53.458;14.540;2023-05-07T05:32:46;6.80;;;5.10;;
68076;SDS011;54866;53.458;14.540;2023-05-07T05:35:15;7.20;;;5.00;;
68076;SDS011;54866;53.458;14.540;2023-05-07T05:37:45;8.60;;;6.10;;
68076;SDS011;54866;53.458;14.540;2023-05-07T05:40:15;6.90;;;5.70;;
68076;SDS011;54866;53.458;14.540;2023-05-07T05:42:45;7.60;;;5.70;;
68076;SDS011;54866;53.458;14.540;2023-05-07T05:45:15;6.10;;;5.20;;
68076;SDS011;54866;53.458;14.540;2023-05-07T05:47:45;7.60;;;5.80;;
68076;SDS011;54866;53.458;14.540;2023-05-07T05:50:14;7.30;;;5.60;;
68076;SDS011;54866;53.458;14.540;2023-05-07T05:52:44;6.10;;;5.50;;
68076;SDS011;54866;53.458;14.540;2023-05-07T05:55:13;5.80;;;5.30;;
68076;SDS011;54866;53.458;14.540;2023-05-07T05:57:43;5.70;;;5.10;;
68076;SDS011;54866;53.458;14.540;2023-05-07T06:00:14;6.40;;;5.60;;
68076;SDS011;54866;53.458;14.540;2023-05-07T06:02:44;6.40;;;5.30;;
68076;SDS011;54866;53.458;14.540;2023-05-07T06:05:13;6.80;;;5.50;;
68076;SDS011;54866;53.458;14.540;2023-05-07T06:07:43;6.30;;;5.60;;
68076;SDS011;54866;53.458;14.540;2023-05-07T06:10:13;6.00;;;4.70;;
68076;SDS011;54866;53.458;14.540;2023-05-07T06:12:42;5.70;;;5.10;;
68076;SDS011;54866;53.458;14.540;2023-05-07T06:15:12;6.30;;;5.60;;
68076;SDS011;54866;53.458;14.540;2023-05-07T06:17:41;6.10;;;4.90;;
68076;SDS011;54866;53.458;14.540;2023-05-07T06:20:11;6.10;;;5.20;;
68076;SDS011;54866;53.458;14.540;2023-05-07T06:22:41;6.30;;;5.70;;
68076;SDS011;54866;53.458;14.540;2023-05-07T06:25:10;7.60;;;5.70;;
68076;SDS011;54866;53.458;14.540;2023-05-07T06:27:40;6.10;;;5.50;;
68076;SDS011;54866;53.458;14.540;2023-05-07T06:30:10;5.70;;;5.20;;
68076;SDS011;54866;53.458;14.540;2023-05-07T06:32:41;6.30;;;5.70;;
68076;SDS011;54866;53.458;14.540;2023-05-07T06:35:10;5.50;;;4.90;;
68076;SDS011;54866;53.458;14.540;2023-05-07T06:37:40;5.60;;;5.10;;
68076;SDS011;54866;53.458;14.540;2023-05-07T06:40:10;5.30;;;4.60;;
68076;SDS011;54866;53.458;14.540;2023-05-07T06:42:40;5.60;;;5.10;;
68076;SDS011;54866;53.458;14.540;2023-05-07T06:45:10;5.70;;;5.10;;
68076;SDS011;54866;53.458;14.540;2023-05-07T06:47:40;6.00;;;4.80;;
68076;SDS011;54866;53.458;14.540;2023-05-07T06:50:10;5.00;;;4.20;;
68076;SDS011;54866;53.458;14.540;2023-05-07T06:52:40;5.20;;;4.70;;
68076;SDS011;54866;53.458;14.540;2023-05-07T06:55:09;7.50;;;4.40;;
68076;SDS011;54866;53.458;14.540;2023-05-07T06:57:39;6.20;;;4.60;;
68076;SDS011;54866;53.458;14.540;2023-05-07T07:00:09;5.00;;;4.00;;
68076;SDS011;54866;53.458;14.540;2023-05-07T07:02:40;4.50;;;3.70;;
68076;SDS011;54866;53.458;14.540;2023-05-07T07:05:10;5.60;;;4.50;;
68076;SDS011;54866;53.458;14.540;2023-05-07T07:07:39;5.10;;;4.00;;
68076;SDS011;54866;53.458;14.540;2023-05-07T07:10:09;5.20;;;4.10;;
68076;SDS011;54866;53.458;14.540;2023-05-07T07:12:39;4.60;;;3.80;;
68076;SDS011;54866;53.458;14.540;2023-05-07T07:15:09;4.50;;;3.60;;
68076;SDS011;54866;53.458;14.540;2023-05-07T07:17:39;5.30;;;3.80;;
68076;SDS011;54866;53.458;14.540;2023-05-07T07:20:09;5.20;;;4.00;;
68076;SDS011;54866;53.458;14.540;2023-05-07T07:22:41;4.60;;;3.70;;
68076;SDS011;54866;53.458;14.540;2023-05-07T07:25:10;5.10;;;3.60;;
68076;SDS011;54866;53.458;14.540;2023-05-07T07:27:40;5.90;;;3.70;;
68076;SDS011;54866;53.458;14.540;2023-05-07T07:30:11;4.40;;;3.80;;
68076;SDS011;54866;53.458;14.540;2023-05-07T07:32:41;5.80;;;3.60;;
68076;SDS011;54866;53.458;14.540;2023-05-07T07:35:11;4.80;;;3.90;;
68076;SDS011;54866;53.458;14.540;2023-05-07T07:37:40;4.60;;;3.70;;
68076;SDS011;54866;53.458;14.540;2023-05-07T07:40:12;5.90;;;3.80;;
68076;SDS011;54866;53.458;14.540;2023-05-07T07:42:42;5.90;;;4.10;;
68076;SDS011;54866;53.458;14.540;2023-05-07T07:45:11;5.20;;;3.70;;
68076;SDS011;54866;53.458;14.540;2023-05-07T07:47:41;5.00;;;3.70;;
68076;SDS011;54866;53.458;14.540;2023-05-07T07:50:11;7.10;;;3.90;;
68076;SDS011;54866;53.458;14.540;2023-05-07T07:52:40;4.80;;;3.80;;
68076;SDS011;54866;53.458;14.540;2023-05-07T07:55:10;5.30;;;3.60;;
68076;SDS011;54866;53.458;14.540;2023-05-07T07:57:44;7.10;;;4.70;;
68076;SDS011;54866;53.458;14.540;2023-05-07T08:00:16;4.40;;;3.40;;
68076;SDS011;54866;53.458;14.540;2023-05-07T08:02:46;5.30;;;4.00;;
68076;SDS011;54866;53.458;14.540;2023-05-07T08:05:16;4.60;;;3.60;;
68076;SDS011;54866;53.458;14.540;2023-05-07T08:07:45;5.60;;;3.20;;
68076;SDS011;54866;53.458;14.540;2023-05-07T08:10:18;4.20;;;3.40;;
68076;SDS011;54866;53.458;14.540;2023-05-07T08:12:48;5.60;;;3.80;;
68076;SDS011;54866;53.458;14.540;2023-05-07T08:15:18;4.40;;;3.40;;
68076;SDS011;54866;53.458;14.540;2023-05-07T08:17:47;4.60;;;3.60;;
68076;SDS011;54866;53.458;14.540;2023-05-07T08:20:17;6.70;;;4.50;;
68076;SDS011;54866;53.458;14.540;2023-05-07T08:22:47;4.90;;;3.70;;
68076;SDS011;54866;53.458;14.540;2023-05-07T08:25:16;5.60;;;4.20;;
68076;SDS011;54866;53.458;14.540;2023-05-07T08:27:46;4.70;;;3.60;;
68076;SDS011;54866;53.458;14.540;2023-05-07T08:30:16;6.80;;;4.10;;
68076;SDS011;54866;53.458;14.540;2023-05-07T08:32:45;4.30;;;3.50;;
68076;SDS011;54866;53.458;14.540;2023-05-07T08:35:15;5.20;;;3.60;;
68076;SDS011;54866;53.458;14.540;2023-05-07T08:37:45;4.60;;;3.40;;
68076;SDS011;54866;53.458;14.540;2023-05-07T08:40:14;5.20;;;3.80;;
68076;SDS011;54866;53.458;14.540;2023-05-07T08:42:44;5.50;;;3.80;;
68076;SDS011;54866;53.458;14.540;2023-05-07T08:45:16;6.70;;;4.60;;
68076;SDS011;54866;53.458;14.540;2023-05-07T08:47:51;5.90;;;4.10;;
68076;SDS011;54866;53.458;14.540;2023-05-07T08:50:25;4.90;;;3.60;;
68076;SDS011;54866;53.458;14.540;2023-05-07T08:52:55;4.70;;;3.70;;
68076;SDS011;54866;53.458;14.540;2023-05-07T08:55:26;6.10;;;4.10;;
68076;SDS011;54866;53.458;14.540;2023-05-07T08:57:58;4.80;;;3.90;;
68076;SDS011;54866;53.458;14.540;2023-05-07T09:00:27;5.70;;;3.60;;
68076;SDS011;54866;53.458;14.540;2023-05-07T09:02:57;4.90;;;3.50;;
68076;SDS011;54866;53.458;14.540;2023-05-07T09:05:27;4.90;;;4.50;;
68076;SDS011;54866;53.458;14.540;2023-05-07T09:08:00;5.80;;;3.30;;
68076;SDS011;54866;53.458;14.540;2023-05-07T09:10:31;5.60;;;3.40;;
68076;SDS011;54866;53.458;14.540;2023-05-07T09:13:01;5.00;;;3.40;;
68076;SDS011;54866;53.458;14.540;2023-05-07T09:15:31;4.60;;;3.70;;
68076;SDS011;54866;53.458;14.540;2023-05-07T09:18:01;3.50;;;2.80;;
68076;SDS011;54866;53.458;14.540;2023-05-07T09:20:31;3.90;;;3.00;;
68076;SDS011;54866;53.458;14.540;2023-05-07T09:23:00;4.20;;;3.20;;
68076;SDS011;54866;53.458;14.540;2023-05-07T09:25:30;4.10;;;3.10;;
68076;SDS011;54866;53.458;14.540;2023-05-07T09:28:01;5.70;;;3.60;;
68076;SDS011;54866;53.458;14.540;2023-05-07T09:30:33;4.60;;;3.10;;
68076;SDS011;54866;53.458;14.540;2023-05-07T09:33:03;5.70;;;3.20;;
68076;SDS011;54866;53.458;14.540;2023-05-07T09:35:32;3.60;;;3.30;;
68076;SDS011;54866;53.458;14.540;2023-05-07T09:38:02;5.40;;;2.90;;
68076;SDS011;54866;53.458;14.540;2023-05-07T09:40:32;3.30;;;2.60;;
68076;SDS011;54866;53.458;14.540;2023-05-07T09:43:10;4.00;;;3.10;;
68076;SDS011;54866;53.458;14.540;2023-05-07T09:45:41;4.80;;;3.10;;
68076;SDS011;54866;53.458;14.540;2023-05-07T09:48:10;4.40;;;3.40;;
68076;SDS011;54866;53.458;14.540;2023-05-07T09:50:46;4.90;;;3.30;;
68076;SDS011;54866;53.458;14.540;2023-05-07T09:53:19;4.70;;;3.20;;
68076;SDS011;54866;53.458;14.540;2023-05-07T09:55:50;4.20;;;2.70;;
68076;SDS011;54866;53.458;14.540;2023-05-07T09:58:20;3.80;;;2.90;;
68076;SDS011;54866;53.458;14.540;2023-05-07T10:00:51;5.60;;;3.00;;
68076;SDS011;54866;53.458;14.540;2023-05-07T10:03:22;5.00;;;3.10;;
68076;SDS011;54866;53.458;14.540;2023-05-07T10:05:56;4.80;;;3.00;;
68076;SDS011;54866;53.458;14.540;2023-05-07T10:08:28;3.70;;;2.60;;
68076;SDS011;54866;53.458;14.540;2023-05-07T10:10:58;4.60;;;2.80;;
68076;SDS011;54866;53.458;14.540;2023-05-07T10:13:29;4.90;;;3.30;;
68076;SDS011;54866;53.458;14.540;2023-05-07T10:15:59;5.40;;;3.50;;
68076;SDS011;54866;53.458;14.540;2023-05-07T10:18:28;3.90;;;3.30;;
68076;SDS011;54866;53.458;14.540;2023-05-07T10:21:01;4.90;;;3.20;;
68076;SDS011;54866;53.458;14.540;2023-05-07T10:23:34;3.50;;;2.70;;
68076;SDS011;54866;53.458;14.540;2023-05-07T10:26:06;4.30;;;3.30;;
68076;SDS011;54866;53.458;14.540;2023-05-07T10:28:38;4.40;;;2.40;;
68076;SDS011;54866;53.458;14.540;2023-05-07T10:31:23;4.00;;;2.80;;
68076;SDS011;54866;53.458;14.540;2023-05-07T10:34:08;4.40;;;2.90;;
68076;SDS011;54866;53.458;14.540;2023-05-07T10:36:40;3.70;;;2.90;;
68076;SDS011;54866;53.458;14.540;2023-05-07T10:39:10;4.20;;;2.70;;
68076;SDS011;54866;53.458;14.540;2023-05-07T10:41:40;3.90;;;3.10;;
68076;SDS011;54866;53.458;14.540;2023-05-07T10:44:09;3.70;;;2.60;;
68076;SDS011;54866;53.458;14.540;2023-05-07T10:46:39;3.40;;;3.10;;
68076;SDS011;54866;53.458;14.540;2023-05-07T10:49:09;3.80;;;2.60;;
68076;SDS011;54866;53.458;14.540;2023-05-07T10:51:40;3.90;;;2.60;;
68076;SDS011;54866;53.458;14.540;2023-05-07T10:54:21;5.50;;;3.00;;
68076;SDS011;54866;53.458;14.540;2023-05-07T10:56:51;4.20;;;3.20;;
68076;SDS011;54866;53.458;14.540;2023-05-07T10:59:34;4.00;;;3.20;;
68076;SDS011;54866;53.458;14.540;2023-05-07T11:02:10;4.50;;;3.00;;
68076;SDS011;54866;53.458;14.540;2023-05-07T11:04:41;4.70;;;2.90;;
68076;SDS011;54866;53.458;14.540;2023-05-07T11:09:56;3.90;;;2.80;;
68076;SDS011;54866;53.458;14.540;2023-05-07T11:18:12;4.60;;;3.00;;
68076;SDS011;54866;53.458;14.540;2023-05-07T11:20:56;3.90;;;2.60;;
68076;SDS011;54866;53.458;14.540;2023-05-07T11:26:26;4.90;;;2.70;;
68076;SDS011;54866;53.458;14.540;2023-05-07T11:28:57;3.40;;;2.90;;
68076;SDS011;54866;53.458;14.540;2023-05-07T11:31:27;3.60;;;2.50;;
68076;SDS011;54866;53.458;14.540;2023-05-07T11:33:58;3.20;;;2.80;;
68076;SDS011;54866;53.458;14.540;2023-05-07T11:36:30;3.90;;;2.70;;
68076;SDS011;54866;53.458;14.540;2023-05-07T11:39:00;3.20;;;2.50;;
68076;SDS011;54866;53.458;14.540;2023-05-07T11:41:36;3.30;;;2.70;;
68076;SDS011;54866;53.458;14.540;2023-05-07T11:44:06;3.60;;;2.50;;
68076;SDS011;54866;53.458;14.540;2023-05-07T11:46:36;4.20;;;2.70;;
68076;SDS011;54866;53.458;14.540;2023-05-07T11:49:10;4.70;;;2.60;;
68076;SDS011;54866;53.458;14.540;2023-05-07T11:51:40;4.10;;;2.30;;
68076;SDS011;54866;53.458;14.540;2023-05-07T11:54:10;5.20;;;2.90;;
68076;SDS011;54866;53.458;14.540;2023-05-07T11:56:43;3.50;;;2.60;;
68076;SDS011;54866;53.458;14.540;2023-05-07T11:59:18;4.00;;;2.70;;
68076;SDS011;54866;53.458;14.540;2023-05-07T12:01:47;3.70;;;2.20;;
68076;SDS011;54866;53.458;14.540;2023-05-07T12:04:20;3.70;;;2.40;;
68076;SDS011;54866;53.458;14.540;2023-05-07T12:06:53;2.80;;;2.10;;
68076;SDS011;54866;53.458;14.540;2023-05-07T12:09:23;3.80;;;2.40;;
68076;SDS011;54866;53.458;14.540;2023-05-07T12:11:53;3.90;;;2.30;;
68076;SDS011;54866;53.458;14.540;2023-05-07T12:14:26;4.10;;;2.50;;
68076;SDS011;54866;53.458;14.540;2023-05-07T12:16:56;2.80;;;2.20;;
68076;SDS011;54866;53.458;14.540;2023-05-07T12:19:29;3.90;;;2.10;;
68076;SDS011;54866;53.458;14.540;2023-05-07T12:21:59;2.70;;;1.90;;
68076;SDS011;54866;53.458;14.540;2023-05-07T12:24:30;3.70;;;2.30;;
68076;SDS011;54866;53.458;14.540;2023-05-07T12:27:12;3.10;;;2.20;;
68076;SDS011;54866;53.458;14.540;2023-05-07T12:29:45;3.60;;;2.40;;
68076;SDS011;54866;53.458;14.540;2023-05-07T12:32:15;3.10;;;2.20;;
68076;SDS011;54866;53.458;14.540;2023-05-07T12:34:49;3.30;;;2.30;;
68076;SDS011;54866;53.458;14.540;2023-05-07T12:37:22;5.30;;;3.20;;
68076;SDS011;54866;53.458;14.540;2023-05-07T12:40:04;3.30;;;1.70;;
68076;SDS011;54866;53.458;14.540;2023-05-07T12:42:36;4.00;;;2.00;;
68076;SDS011;54866;53.458;14.540;2023-05-07T12:45:11;3.90;;;2.30;;
68076;SDS011;54866;53.458;14.540;2023-05-07T12:47:44;3.50;;;2.30;;
68076;SDS011;54866;53.458;14.540;2023-05-07T12:50:14;5.00;;;3.10;;
68076;SDS011;54866;53.458;14.540;2023-05-07T12:52:45;3.60;;;2.20;;
68076;SDS011;54866;53.458;14.540;2023-05-07T12:55:16;4.10;;;2.40;;
68076;SDS011;54866;53.458;14.540;2023-05-07T12:57:47;4.40;;;2.20;;
68076;SDS011;54866;53.458;14.540;2023-05-07T13:00:18;2.90;;;2.40;;
68076;SDS011;54866;53.458;14.540;2023-05-07T13:02:59;3.70;;;2.90;;
68076;SDS011;54866;53.458;14.540;2023-05-07T13:05:29;4.90;;;2.80;;
68076;SDS011;54866;53.458;14.540;2023-05-07T13:07:58;3.90;;;2.10;;
68076;SDS011;54866;53.458;14.540;2023-05-07T13:10:28;3.60;;;2.20;;
68076;SDS011;54866;53.458;14.540;2023-05-07T13:12:59;3.20;;;2.40;;
68076;SDS011;54866;53.458;14.540;2023-05-07T13:15:28;5.00;;;2.50;;
68076;SDS011;54866;53.458;14.540;2023-05-07T13:17:58;3.50;;;2.50;;
68076;SDS011;54866;53.458;14.540;2023-05-07T13:20:27;3.60;;;2.50;;
68076;SDS011;54866;53.458;14.540;2023-05-07T13:22:57;3.90;;;3.20;;
68076;SDS011;54866;53.458;14.540;2023-05-07T13:25:28;4.00;;;2.90;;
68076;SDS011;54866;53.458;14.540;2023-05-07T13:27:58;4.20;;;2.70;;
68076;SDS011;54866;53.458;14.540;2023-05-07T13:30:27;3.60;;;3.00;;
68076;SDS011;54866;53.458;14.540;2023-05-07T13:32:57;4.00;;;3.10;;
68076;SDS011;54866;53.458;14.540;2023-05-07T13:35:26;6.20;;;2.70;;
68076;SDS011;54866;53.458;14.540;2023-05-07T13:37:56;4.40;;;2.70;;
68076;SDS011;54866;53.458;14.540;2023-05-07T13:40:26;3.90;;;2.60;;
68076;SDS011;54866;53.458;14.540;2023-05-07T13:42:56;3.50;;;2.50;;
68076;SDS011;54866;53.458;14.540;2023-05-07T13:45:28;5.10;;;3.40;;
68076;SDS011;54866;53.458;14.540;2023-05-07T13:47:58;4.60;;;2.60;;
68076;SDS011;54866;53.458;14.540;2023-05-07T13:50:27;3.90;;;2.40;;
68076;SDS011;54866;53.458;14.540;2023-05-07T13:52:57;4.90;;;2.90;;
68076;SDS011;54866;53.458;14.540;2023-05-07T13:55:28;5.00;;;2.90;;
68076;SDS011;54866;53.458;14.540;2023-05-07T13:57:58;3.60;;;2.50;;
68076;SDS011;54866;53.458;14.540;2023-05-07T14:00:30;3.40;;;2.40;;
68076;SDS011;54866;53.458;14.540;2023-05-07T14:03:00;4.50;;;3.10;;
68076;SDS011;54866;53.458;14.540;2023-05-07T14:05:30;3.50;;;2.60;;
68076;SDS011;54866;53.458;14.540;2023-05-07T14:07:59;4.20;;;2.70;;
68076;SDS011;54866;53.458;14.540;2023-05-07T14:10:30;4.30;;;2.90;;
68076;SDS011;54866;53.458;14.540;2023-05-07T14:13:01;4.00;;;2.70;;
68076;SDS011;54866;53.458;14.540;2023-05-07T14:15:30;3.10;;;2.30;;
68076;SDS011;54866;53.458;14.540;2023-05-07T14:18:00;4.90;;;3.00;;
68076;SDS011;54866;53.458;14.540;2023-05-07T14:20:30;3.50;;;2.70;;
68076;SDS011;54866;53.458;14.540;2023-05-07T14:22:59;4.30;;;2.90;;
68076;SDS011;54866;53.458;14.540;2023-05-07T14:25:29;3.80;;;3.00;;
68076;SDS011;54866;53.458;14.540;2023-05-07T14:27:58;4.10;;;2.70;;
68076;SDS011;54866;53.458;14.540;2023-05-07T14:30:28;4.10;;;2.40;;
68076;SDS011;54866;53.458;14.540;2023-05-07T14:32:57;4.50;;;3.10;;
68076;SDS011;54866;53.458;14.540;2023-05-07T14:35:27;5.10;;;3.10;;
68076;SDS011;54866;53.458;14.540;2023-05-07T14:37:57;5.10;;;3.50;;
68076;SDS011;54866;53.458;14.540;2023-05-07T14:40:26;3.50;;;3.00;;
68076;SDS011;54866;53.458;14.540;2023-05-07T14:42:56;3.30;;;2.60;;
68076;SDS011;54866;53.458;14.540;2023-05-07T14:45:25;4.10;;;2.60;;
68076;SDS011;54866;53.458;14.540;2023-05-07T14:47:55;5.20;;;2.90;;
68076;SDS011;54866;53.458;14.540;2023-05-07T14:50:24;3.70;;;2.40;;
68076;SDS011;54866;53.458;14.540;2023-05-07T14:52:54;4.00;;;2.60;;
68076;SDS011;54866;53.458;14.540;2023-05-07T14:55:24;3.80;;;2.50;;
68076;SDS011;54866;53.458;14.540;2023-05-07T14:57:53;3.60;;;2.70;;
68076;SDS011;54866;53.458;14.540;2023-05-07T15:00:23;4.20;;;2.70;;
68076;SDS011;54866;53.458;14.540;2023-05-07T15:02:52;3.20;;;2.60;;